Lumby, Canada
Current Conditions -  °F | °C
As of 1:44 PM on Friday 19 Dec 2014 (Local Time) from CYLW Reporting Station
Light Rain Light Rain  
Wind Chill: 35°   Ceiling: 4700
Heat Index: 39°   Visibility: 9mi
Dew Point: 37°   Wind: 6mph
Humidity: 93%   Direction: 140°SE
Pressure: 29.87"   Gusts: NA
Location:  50.25°N, 118.97°W
Report Text: CYLW 192144Z AUTO 14005KT 9SM -RA SCT021 SCT027 BKN047 OVC110 04/03 A2987 RMK SLP128
Loading
Personal Weather Stations






























Interactive Weather Map New forecast layout! Learn more

10-Day Weather Forecast

Advertisements
Track Severe Weather on mobile